sensor_id;sensor_type;location;lat;lon;timestamp;P1;P2;P0
79537;PMS5003;68989;52.032;5.152;2023-04-04T00:01:42;10;9;
79537;PMS5003;68989;52.032;5.152;2023-04-04T00:04:09;15;10;
79537;PMS5003;68989;52.032;5.152;2023-04-04T00:06:36;11;11;
79537;PMS5003;68989;52.032;5.152;2023-04-04T00:09:03;10;10;
79537;PMS5003;68989;52.032;5.152;2023-04-04T00:11:30;9;8;
79537;PMS5003;68989;52.032;5.152;2023-04-04T00:13:56;12;10;
79537;PMS5003;68989;52.032;5.152;2023-04-04T00:16:24;10;8;
79537;PMS5003;68989;52.032;5.152;2023-04-04T00:18:51;12;11;
79537;PMS5003;68989;52.032;5.152;2023-04-04T00:21:18;10;10;
79537;PMS5003;68989;52.032;5.152;2023-04-04T00:23:45;9;9;
79537;PMS5003;68989;52.032;5.152;2023-04-04T00:26:12;12;11;
79537;PMS5003;68989;52.032;5.152;2023-04-04T00:28:39;10;10;
79537;PMS5003;68989;52.032;5.152;2023-04-04T00:31:06;11;10;
79537;PMS5003;68989;52.032;5.152;2023-04-04T00:33:33;10;10;
79537;PMS5003;68989;52.032;5.152;2023-04-04T00:36:00;13;11;
79537;PMS5003;68989;52.032;5.152;2023-04-04T00:38:27;11;9;
79537;PMS5003;68989;52.032;5.152;2023-04-04T00:40:54;9;9;
79537;PMS5003;68989;52.032;5.152;2023-04-04T00:43:23;10;9;
79537;PMS5003;68989;52.032;5.152;2023-04-04T00:45:52;11;9;
79537;PMS5003;68989;52.032;5.152;2023-04-04T00:48:19;10;10;
79537;PMS5003;68989;52.032;5.152;2023-04-04T00:50:46;9;9;
79537;PMS5003;68989;52.032;5.152;2023-04-04T00:53:13;11;10;
79537;PMS5003;68989;52.032;5.152;2023-04-04T00:55:40;9;9;
79537;PMS5003;68989;52.032;5.152;2023-04-04T00:58:08;9;9;
79537;PMS5003;68989;52.032;5.152;2023-04-04T01:01:33;10;10;
79537;PMS5003;68989;52.032;5.152;2023-04-04T01:04:01;10;9;
79537;PMS5003;68989;52.032;5.152;2023-04-04T01:06:28;14;10;
79537;PMS5003;68989;52.032;5.152;2023-04-04T01:08:56;10;10;
79537;PMS5003;68989;52.032;5.152;2023-04-04T01:11:23;14;12;
79537;PMS5003;68989;52.032;5.152;2023-04-04T01:13:52;14;14;
79537;PMS5003;68989;52.032;5.152;2023-04-04T01:16:19;17;12;
79537;PMS5003;68989;52.032;5.152;2023-04-04T01:18:45;9;9;
79537;PMS5003;68989;52.032;5.152;2023-04-04T01:21:14;15;15;
79537;PMS5003;68989;52.032;5.152;2023-04-04T01:23:43;14;12;
79537;PMS5003;68989;52.032;5.152;2023-04-04T01:26:17;15;14;
79537;PMS5003;68989;52.032;5.152;2023-04-04T01:28:47;14;12;
79537;PMS5003;68989;52.032;5.152;2023-04-04T01:31:14;11;10;
79537;PMS5003;68989;52.032;5.152;2023-04-04T01:33:50;9;9;
79537;PMS5003;68989;52.032;5.152;2023-04-04T01:36:26;14;14;
79537;PMS5003;68989;52.032;5.152;2023-04-04T01:39:02;9;9;
79537;PMS5003;68989;52.032;5.152;2023-04-04T01:41:35;9;9;
79537;PMS5003;68989;52.032;5.152;2023-04-04T01:44:04;10;10;
79537;PMS5003;68989;52.032;5.152;2023-04-04T01:46:32;12;12;
79537;PMS5003;68989;52.032;5.152;2023-04-04T01:49:00;13;10;
79537;PMS5003;68989;52.032;5.152;2023-04-04T01:51:27;10;10;
79537;PMS5003;68989;52.032;5.152;2023-04-04T01:53:56;14;14;
79537;PMS5003;68989;52.032;5.152;2023-04-04T01:56:23;16;13;
79537;PMS5003;68989;52.032;5.152;2023-04-04T01:58:50;11;10;
79537;PMS5003;68989;52.032;5.152;2023-04-04T02:01:17;11;11;
79537;PMS5003;68989;52.032;5.152;2023-04-04T02:03:44;11;11;
79537;PMS5003;68989;52.032;5.152;2023-04-04T02:06:11;14;11;
79537;PMS5003;68989;52.032;5.152;2023-04-04T02:08:38;11;11;
79537;PMS5003;68989;52.032;5.152;2023-04-04T02:11:05;15;11;
79537;PMS5003;68989;52.032;5.152;2023-04-04T02:13:32;13;11;
79537;PMS5003;68989;52.032;5.152;2023-04-04T02:15:59;17;14;
79537;PMS5003;68989;52.032;5.152;2023-04-04T02:18:26;15;13;
79537;PMS5003;68989;52.032;5.152;2023-04-04T02:20:54;10;10;
79537;PMS5003;68989;52.032;5.152;2023-04-04T02:23:21;15;14;
79537;PMS5003;68989;52.032;5.152;2023-04-04T02:25:49;13;13;
79537;PMS5003;68989;52.032;5.152;2023-04-04T02:28:16;14;14;
79537;PMS5003;68989;52.032;5.152;2023-04-04T02:30:42;11;11;
79537;PMS5003;68989;52.032;5.152;2023-04-04T02:33:09;16;14;
79537;PMS5003;68989;52.032;5.152;2023-04-04T02:35:36;15;14;
79537;PMS5003;68989;52.032;5.152;2023-04-04T02:38:03;15;14;
79537;PMS5003;68989;52.032;5.152;2023-04-04T02:40:30;16;15;
79537;PMS5003;68989;52.032;5.152;2023-04-04T02:42:57;13;13;
79537;PMS5003;68989;52.032;5.152;2023-04-04T02:45:24;14;14;
79537;PMS5003;68989;52.032;5.152;2023-04-04T02:47:51;14;14;
79537;PMS5003;68989;52.032;5.152;2023-04-04T02:50:18;16;14;
79537;PMS5003;68989;52.032;5.152;2023-04-04T02:52:45;14;14;
79537;PMS5003;68989;52.032;5.152;2023-04-04T02:55:12;15;13;
79537;PMS5003;68989;52.032;5.152;2023-04-04T02:57:39;11;11;
79537;PMS5003;68989;52.032;5.152;2023-04-04T03:00:06;16;13;
79537;PMS5003;68989;52.032;5.152;2023-04-04T03:02:35;15;15;
79537;PMS5003;68989;52.032;5.152;2023-04-04T03:05:01;17;11;
79537;PMS5003;68989;52.032;5.152;2023-04-04T03:07:29;15;13;
79537;PMS5003;68989;52.032;5.152;2023-04-04T03:09:56;11;11;
79537;PMS5003;68989;52.032;5.152;2023-04-04T03:12:23;11;11;
79537;PMS5003;68989;52.032;5.152;2023-04-04T03:14:50;16;14;
79537;PMS5003;68989;52.032;5.152;2023-04-04T03:17:17;16;15;
79537;PMS5003;68989;52.032;5.152;2023-04-04T03:19:44;14;14;
79537;PMS5003;68989;52.032;5.152;2023-04-04T03:22:11;17;15;
79537;PMS5003;68989;52.032;5.152;2023-04-04T03:24:38;14;14;
79537;PMS5003;68989;52.032;5.152;2023-04-04T03:27:05;15;15;
79537;PMS5003;68989;52.032;5.152;2023-04-04T03:29:32;19;17;
79537;PMS5003;68989;52.032;5.152;2023-04-04T03:31:59;15;15;
79537;PMS5003;68989;52.032;5.152;2023-04-04T03:34:26;16;16;
79537;PMS5003;68989;52.032;5.152;2023-04-04T03:36:54;14;14;
79537;PMS5003;68989;52.032;5.152;2023-04-04T03:39:21;18;14;
79537;PMS5003;68989;52.032;5.152;2023-04-04T03:41:48;12;12;
79537;PMS5003;68989;52.032;5.152;2023-04-04T03:44:15;19;14;
79537;PMS5003;68989;52.032;5.152;2023-04-04T03:46:41;14;14;
79537;PMS5003;68989;52.032;5.152;2023-04-04T03:49:09;14;14;
79537;PMS5003;68989;52.032;5.152;2023-04-04T03:51:35;18;15;
79537;PMS5003;68989;52.032;5.152;2023-04-04T03:54:02;16;14;
79537;PMS5003;68989;52.032;5.152;2023-04-04T03:56:29;14;13;
79537;PMS5003;68989;52.032;5.152;2023-04-04T03:58:57;16;16;
79537;PMS5003;68989;52.032;5.152;2023-04-04T04:01:24;16;16;
79537;PMS5003;68989;52.032;5.152;2023-04-04T04:03:51;16;14;
79537;PMS5003;68989;52.032;5.152;2023-04-04T04:06:18;14;14;
79537;PMS5003;68989;52.032;5.152;2023-04-04T04:08:45;14;14;
79537;PMS5003;68989;52.032;5.152;2023-04-04T04:11:12;13;13;
79537;PMS5003;68989;52.032;5.152;2023-04-04T04:13:39;16;16;
79537;PMS5003;68989;52.032;5.152;2023-04-04T04:16:05;19;16;
79537;PMS5003;68989;52.032;5.152;2023-04-04T04:18:32;16;16;
79537;PMS5003;68989;52.032;5.152;2023-04-04T04:20:59;13;13;
79537;PMS5003;68989;52.032;5.152;2023-04-04T04:23:26;19;14;
79537;PMS5003;68989;52.032;5.152;2023-04-04T04:25:53;19;16;
79537;PMS5003;68989;52.032;5.152;2023-04-04T04:28:20;16;14;
79537;PMS5003;68989;52.032;5.152;2023-04-04T04:30:48;13;13;
79537;PMS5003;68989;52.032;5.152;2023-04-04T04:33:15;16;15;
79537;PMS5003;68989;52.032;5.152;2023-04-04T04:35:42;18;18;
79537;PMS5003;68989;52.032;5.152;2023-04-04T04:38:09;13;13;
79537;PMS5003;68989;52.032;5.152;2023-04-04T04:40:36;15;15;
79537;PMS5003;68989;52.032;5.152;2023-04-04T04:43:02;21;16;
79537;PMS5003;68989;52.032;5.152;2023-04-04T04:45:30;16;16;
79537;PMS5003;68989;52.032;5.152;2023-04-04T04:47:57;16;14;
79537;PMS5003;68989;52.032;5.152;2023-04-04T04:50:24;19;14;
79537;PMS5003;68989;52.032;5.152;2023-04-04T04:52:51;16;16;
79537;PMS5003;68989;52.032;5.152;2023-04-04T04:55:18;19;15;
79537;PMS5003;68989;52.032;5.152;2023-04-04T04:57:45;19;19;
79537;PMS5003;68989;52.032;5.152;2023-04-04T05:00:12;14;14;
79537;PMS5003;68989;52.032;5.152;2023-04-04T05:02:40;13;13;
79537;PMS5003;68989;52.032;5.152;2023-04-04T05:05:07;15;15;
79537;PMS5003;68989;52.032;5.152;2023-04-04T05:07:34;18;16;
79537;PMS5003;68989;52.032;5.152;2023-04-04T05:10:01;21;19;
79537;PMS5003;68989;52.032;5.152;2023-04-04T05:12:28;20;18;
79537;PMS5003;68989;52.032;5.152;2023-04-04T05:14:55;18;17;
79537;PMS5003;68989;52.032;5.152;2023-04-04T05:17:22;17;14;
79537;PMS5003;68989;52.032;5.152;2023-04-04T05:19:49;21;20;
79537;PMS5003;68989;52.032;5.152;2023-04-04T05:22:16;15;14;
79537;PMS5003;68989;52.032;5.152;2023-04-04T05:24:43;20;15;
79537;PMS5003;68989;52.032;5.152;2023-04-04T05:27:10;23;18;
79537;PMS5003;68989;52.032;5.152;2023-04-04T05:29:36;19;19;
79537;PMS5003;68989;52.032;5.152;2023-04-04T05:32:04;19;15;
79537;PMS5003;68989;52.032;5.152;2023-04-04T05:34:30;17;15;
79537;PMS5003;68989;52.032;5.152;2023-04-04T05:36:57;18;17;
79537;PMS5003;68989;52.032;5.152;2023-04-04T05:39:24;17;17;
79537;PMS5003;68989;52.032;5.152;2023-04-04T05:41:51;17;17;
79537;PMS5003;68989;52.032;5.152;2023-04-04T05:44:18;19;17;
79537;PMS5003;68989;52.032;5.152;2023-04-04T05:46:45;18;18;
79537;PMS5003;68989;52.032;5.152;2023-04-04T05:49:12;17;14;
79537;PMS5003;68989;52.032;5.152;2023-04-04T05:51:39;17;14;
79537;PMS5003;68989;52.032;5.152;2023-04-04T05:54:06;17;17;
79537;PMS5003;68989;52.032;5.152;2023-04-04T05:56:33;18;17;
79537;PMS5003;68989;52.032;5.152;2023-04-04T05:59:00;23;20;
79537;PMS5003;68989;52.032;5.152;2023-04-04T06:01:28;19;17;
79537;PMS5003;68989;52.032;5.152;2023-04-04T06:03:55;21;17;
79537;PMS5003;68989;52.032;5.152;2023-04-04T06:06:22;18;17;
79537;PMS5003;68989;52.032;5.152;2023-04-04T06:08:49;21;21;
79537;PMS5003;68989;52.032;5.152;2023-04-04T06:11:16;21;19;
79537;PMS5003;68989;52.032;5.152;2023-04-04T06:13:43;18;18;
79537;PMS5003;68989;52.032;5.152;2023-04-04T06:16:09;17;17;
79537;PMS5003;68989;52.032;5.152;2023-04-04T06:18:37;20;20;
79537;PMS5003;68989;52.032;5.152;2023-04-04T06:21:04;19;17;
79537;PMS5003;68989;52.032;5.152;2023-04-04T06:23:31;19;19;
79537;PMS5003;68989;52.032;5.152;2023-04-04T06:25:57;19;18;
79537;PMS5003;68989;52.032;5.152;2023-04-04T06:28:25;19;17;
79537;PMS5003;68989;52.032;5.152;2023-04-04T06:30:52;19;18;
79537;PMS5003;68989;52.032;5.152;2023-04-04T06:33:19;19;19;
79537;PMS5003;68989;52.032;5.152;2023-04-04T06:35:46;24;19;
79537;PMS5003;68989;52.032;5.152;2023-04-04T06:38:13;21;19;
79537;PMS5003;68989;52.032;5.152;2023-04-04T06:40:40;23;19;
79537;PMS5003;68989;52.032;5.152;2023-04-04T06:43:07;20;20;
79537;PMS5003;68989;52.032;5.152;2023-04-04T06:45:35;19;18;
79537;PMS5003;68989;52.032;5.152;2023-04-04T06:48:02;23;20;
79537;PMS5003;68989;52.032;5.152;2023-04-04T06:50:29;23;20;
79537;PMS5003;68989;52.032;5.152;2023-04-04T06:52:56;24;21;
79537;PMS5003;68989;52.032;5.152;2023-04-04T06:55:25;20;19;
79537;PMS5003;68989;52.032;5.152;2023-04-04T06:57:52;25;21;
79537;PMS5003;68989;52.032;5.152;2023-04-04T07:00:20;19;19;
79537;PMS5003;68989;52.032;5.152;2023-04-04T07:02:46;20;19;
79537;PMS5003;68989;52.032;5.152;2023-04-04T07:05:14;21;20;
79537;PMS5003;68989;52.032;5.152;2023-04-04T07:07:41;22;21;
79537;PMS5003;68989;52.032;5.152;2023-04-04T07:10:08;23;21;
79537;PMS5003;68989;52.032;5.152;2023-04-04T07:12:35;28;21;
79537;PMS5003;68989;52.032;5.152;2023-04-04T07:15:02;23;22;
79537;PMS5003;68989;52.032;5.152;2023-04-04T07:17:29;19;17;
79537;PMS5003;68989;52.032;5.152;2023-04-04T07:19:57;22;20;
79537;PMS5003;68989;52.032;5.152;2023-04-04T07:22:24;22;22;
79537;PMS5003;68989;52.032;5.152;2023-04-04T07:24:50;22;21;
79537;PMS5003;68989;52.032;5.152;2023-04-04T07:27:18;23;22;
79537;PMS5003;68989;52.032;5.152;2023-04-04T07:29:45;22;22;
79537;PMS5003;68989;52.032;5.152;2023-04-04T07:32:13;24;20;
79537;PMS5003;68989;52.032;5.152;2023-04-04T07:34:39;18;16;
79537;PMS5003;68989;52.032;5.152;2023-04-04T07:37:06;21;19;
79537;PMS5003;68989;52.032;5.152;2023-04-04T07:39:33;18;18;
79537;PMS5003;68989;52.032;5.152;2023-04-04T07:42:00;16;16;
79537;PMS5003;68989;52.032;5.152;2023-04-04T07:44:27;21;18;
79537;PMS5003;68989;52.032;5.152;2023-04-04T07:46:54;18;18;
79537;PMS5003;68989;52.032;5.152;2023-04-04T07:49:21;17;17;
79537;PMS5003;68989;52.032;5.152;2023-04-04T07:51:48;16;16;
79537;PMS5003;68989;52.032;5.152;2023-04-04T07:54:15;17;17;
79537;PMS5003;68989;52.032;5.152;2023-04-04T07:56:42;16;16;
79537;PMS5003;68989;52.032;5.152;2023-04-04T07:59:09;16;16;
79537;PMS5003;68989;52.032;5.152;2023-04-04T08:01:36;14;14;
79537;PMS5003;68989;52.032;5.152;2023-04-04T08:04:03;20;19;
79537;PMS5003;68989;52.032;5.152;2023-04-04T08:06:31;19;19;
79537;PMS5003;68989;52.032;5.152;2023-04-04T08:08:58;17;17;
79537;PMS5003;68989;52.032;5.152;2023-04-04T08:11:25;16;15;
79537;PMS5003;68989;52.032;5.152;2023-04-04T08:13:52;13;13;
79537;PMS5003;68989;52.032;5.152;2023-04-04T08:16:19;22;19;
79537;PMS5003;68989;52.032;5.152;2023-04-04T08:18:46;18;15;
79537;PMS5003;68989;52.032;5.152;2023-04-04T08:21:13;19;16;
79537;PMS5003;68989;52.032;5.152;2023-04-04T08:23:40;14;13;
79537;PMS5003;68989;52.032;5.152;2023-04-04T08:26:07;17;15;
79537;PMS5003;68989;52.032;5.152;2023-04-04T08:28:34;13;13;
79537;PMS5003;68989;52.032;5.152;2023-04-04T08:31:01;15;14;
79537;PMS5003;68989;52.032;5.152;2023-04-04T08:33:28;14;14;
79537;PMS5003;68989;52.032;5.152;2023-04-04T08:35:55;11;11;
79537;PMS5003;68989;52.032;5.152;2023-04-04T08:38:22;15;13;
79537;PMS5003;68989;52.032;5.152;2023-04-04T08:40:49;12;12;
79537;PMS5003;68989;52.032;5.152;2023-04-04T08:43:16;12;12;
79537;PMS5003;68989;52.032;5.152;2023-04-04T08:45:44;13;13;
79537;PMS5003;68989;52.032;5.152;2023-04-04T08:48:13;14;12;
79537;PMS5003;68989;52.032;5.152;2023-04-04T08:50:42;11;11;
79537;PMS5003;68989;52.032;5.152;2023-04-04T08:53:10;12;12;
79537;PMS5003;68989;52.032;5.152;2023-04-04T08:55:37;13;12;
79537;PMS5003;68989;52.032;5.152;2023-04-04T08:58:04;11;11;
79537;PMS5003;68989;52.032;5.152;2023-04-04T09:00:31;11;8;
79537;PMS5003;68989;52.032;5.152;2023-04-04T09:02:59;9;9;
79537;PMS5003;68989;52.032;5.152;2023-04-04T09:05:31;12;12;
79537;PMS5003;68989;52.032;5.152;2023-04-04T09:07:59;9;8;
79537;PMS5003;68989;52.032;5.152;2023-04-04T09:10:28;13;13;
79537;PMS5003;68989;52.032;5.152;2023-04-04T09:12:55;12;9;
79537;PMS5003;68989;52.032;5.152;2023-04-04T09:15:23;10;9;
79537;PMS5003;68989;52.032;5.152;2023-04-04T09:17:50;12;11;
79537;PMS5003;68989;52.032;5.152;2023-04-04T09:20:49;10;8;
79537;PMS5003;68989;52.032;5.152;2023-04-04T09:23:17;9;8;
79537;PMS5003;68989;52.032;5.152;2023-04-04T09:25:46;10;10;
79537;PMS5003;68989;52.032;5.152;2023-04-04T09:28:16;13;10;
79537;PMS5003;68989;52.032;5.152;2023-04-04T09:30:43;9;9;
79537;PMS5003;68989;52.032;5.152;2023-04-04T09:33:14;8;8;
79537;PMS5003;68989;52.032;5.152;2023-04-04T09:35:43;11;10;
79537;PMS5003;68989;52.032;5.152;2023-04-04T09:38:11;10;9;
79537;PMS5003;68989;52.032;5.152;2023-04-04T09:40:40;10;9;
79537;PMS5003;68989;52.032;5.152;2023-04-04T09:43:07;9;8;
79537;PMS5003;68989;52.032;5.152;2023-04-04T09:45:34;7;7;
79537;PMS5003;68989;52.032;5.152;2023-04-04T09:48:04;6;6;
79537;PMS5003;68989;52.032;5.152;2023-04-04T09:50:32;9;8;
79537;PMS5003;68989;52.032;5.152;2023-04-04T09:52:59;14;10;
79537;PMS5003;68989;52.032;5.152;2023-04-04T09:55:33;9;9;
79537;PMS5003;68989;52.032;5.152;2023-04-04T09:58:02;13;10;
79537;PMS5003;68989;52.032;5.152;2023-04-04T10:00:38;12;9;
79537;PMS5003;68989;52.032;5.152;2023-04-04T10:03:06;11;7;
79537;PMS5003;68989;52.032;5.152;2023-04-04T10:05:33;8;7;
79537;PMS5003;68989;52.032;5.152;2023-04-04T10:08:11;7;6;
79537;PMS5003;68989;52.032;5.152;2023-04-04T10:10:44;6;6;
79537;PMS5003;68989;52.032;5.152;2023-04-04T10:13:12;8;8;
79537;PMS5003;68989;52.032;5.152;2023-04-04T10:15:40;11;8;
79537;PMS5003;68989;52.032;5.152;2023-04-04T10:18:12;10;10;
79537;PMS5003;68989;52.032;5.152;2023-04-04T10:20:39;7;7;
79537;PMS5003;68989;52.032;5.152;2023-04-04T10:23:08;7;7;
79537;PMS5003;68989;52.032;5.152;2023-04-04T10:25:35;11;9;
79537;PMS5003;68989;52.032;5.152;2023-04-04T10:28:02;9;7;
79537;PMS5003;68989;52.032;5.152;2023-04-04T10:30:29;5;5;
79537;PMS5003;68989;52.032;5.152;2023-04-04T10:33:06;7;7;
79537;PMS5003;68989;52.032;5.152;2023-04-04T10:35:35;8;8;
79537;PMS5003;68989;52.032;5.152;2023-04-04T10:38:06;8;7;
79537;PMS5003;68989;52.032;5.152;2023-04-04T10:40:34;9;9;
79537;PMS5003;68989;52.032;5.152;2023-04-04T10:43:02;8;8;
79537;PMS5003;68989;52.032;5.152;2023-04-04T10:45:31;9;7;
79537;PMS5003;68989;52.032;5.152;2023-04-04T10:47:58;9;8;
79537;PMS5003;68989;52.032;5.152;2023-04-04T10:50:28;12;10;
79537;PMS5003;68989;52.032;5.152;2023-04-04T10:52:55;9;9;
79537;PMS5003;68989;52.032;5.152;2023-04-04T10:55:22;11;8;
79537;PMS5003;68989;52.032;5.152;2023-04-04T10:57:50;10;10;
79537;PMS5003;68989;52.032;5.152;2023-04-04T11:00:18;12;12;
79537;PMS5003;68989;52.032;5.152;2023-04-04T11:02:47;10;10;
79537;PMS5003;68989;52.032;5.152;2023-04-04T11:05:18;11;10;
79537;PMS5003;68989;52.032;5.152;2023-04-04T11:07:47;11;11;
79537;PMS5003;68989;52.032;5.152;2023-04-04T11:10:20;9;9;
79537;PMS5003;68989;52.032;5.152;2023-04-04T11:12:50;11;9;
79537;PMS5003;68989;52.032;5.152;2023-04-04T11:15:19;10;9;
79537;PMS5003;68989;52.032;5.152;2023-04-04T11:17:56;8;8;
79537;PMS5003;68989;52.032;5.152;2023-04-04T11:20:28;10;10;
79537;PMS5003;68989;52.032;5.152;2023-04-04T11:23:01;10;8;
79537;PMS5003;68989;52.032;5.152;2023-04-04T11:25:31;12;9;
79537;PMS5003;68989;52.032;5.152;2023-04-04T11:28:03;10;10;
79537;PMS5003;68989;52.032;5.152;2023-04-04T11:30:31;6;6;
79537;PMS5003;68989;52.032;5.152;2023-04-04T11:33:03;6;6;
79537;PMS5003;68989;52.032;5.152;2023-04-04T11:35:31;7;7;
79537;PMS5003;68989;52.032;5.152;2023-04-04T11:37:58;9;8;
79537;PMS5003;68989;52.032;5.152;2023-04-04T11:40:34;10;10;
79537;PMS5003;68989;52.032;5.152;2023-04-04T11:43:06;8;8;
79537;PMS5003;68989;52.032;5.152;2023-04-04T11:45:34;10;8;
79537;PMS5003;68989;52.032;5.152;2023-04-04T11:48:02;8;8;
79537;PMS5003;68989;52.032;5.152;2023-04-04T11:50:33;11;11;
79537;PMS5003;68989;52.032;5.152;2023-04-04T11:53:03;8;8;
79537;PMS5003;68989;52.032;5.152;2023-04-04T11:55:31;6;6;
79537;PMS5003;68989;52.032;5.152;2023-04-04T11:58:15;9;9;
79537;PMS5003;68989;52.032;5.152;2023-04-04T12:00:42;9;9;
79537;PMS5003;68989;52.032;5.152;2023-04-04T12:03:11;9;8;
79537;PMS5003;68989;52.032;5.152;2023-04-04T12:05:41;11;9;
79537;PMS5003;68989;52.032;5.152;2023-04-04T12:08:10;9;9;
79537;PMS5003;68989;52.032;5.152;2023-04-04T12:10:38;7;7;
79537;PMS5003;68989;52.032;5.152;2023-04-04T12:13:06;8;8;
79537;PMS5003;68989;52.032;5.152;2023-04-04T12:15:35;9;9;
79537;PMS5003;68989;52.032;5.152;2023-04-04T12:18:05;10;10;
79537;PMS5003;68989;52.032;5.152;2023-04-04T12:20:33;7;7;
79537;PMS5003;68989;52.032;5.152;2023-04-04T12:23:03;9;8;
79537;PMS5003;68989;52.032;5.152;2023-04-04T12:25:30;11;7;
79537;PMS5003;68989;52.032;5.152;2023-04-04T12:27:58;8;8;
79537;PMS5003;68989;52.032;5.152;2023-04-04T12:30:27;9;9;
79537;PMS5003;68989;52.032;5.152;2023-04-04T12:32:55;8;8;
79537;PMS5003;68989;52.032;5.152;2023-04-04T12:35:22;8;8;
79537;PMS5003;68989;52.032;5.152;2023-04-04T12:37:57;9;8;
79537;PMS5003;68989;52.032;5.152;2023-04-04T12:40:34;11;8;
79537;PMS5003;68989;52.032;5.152;2023-04-04T12:43:04;10;9;
79537;PMS5003;68989;52.032;5.152;2023-04-04T12:45:35;10;9;
79537;PMS5003;68989;52.032;5.152;2023-04-04T12:48:07;10;10;
79537;PMS5003;68989;52.032;5.152;2023-04-04T12:50:44;9;9;
79537;PMS5003;68989;52.032;5.152;2023-04-04T12:53:15;8;8;
79537;PMS5003;68989;52.032;5.152;2023-04-04T12:55:44;12;9;
79537;PMS5003;68989;52.032;5.152;2023-04-04T12:58:12;8;8;
79537;PMS5003;68989;52.032;5.152;2023-04-04T13:00:41;10;10;
79537;PMS5003;68989;52.032;5.152;2023-04-04T13:03:08;10;10;
79537;PMS5003;68989;52.032;5.152;2023-04-04T13:05:37;8;8;
79537;PMS5003;68989;52.032;5.152;2023-04-04T13:08:04;7;7;
79537;PMS5003;68989;52.032;5.152;2023-04-04T13:10:50;12;9;
79537;PMS5003;68989;52.032;5.152;2023-04-04T13:13:30;8;7;
79537;PMS5003;68989;52.032;5.152;2023-04-04T13:15:58;8;8;
79537;PMS5003;68989;52.032;5.152;2023-04-04T13:18:25;8;8;
79537;PMS5003;68989;52.032;5.152;2023-04-04T13:20:58;8;8;
79537;PMS5003;68989;52.032;5.152;2023-04-04T13:23:26;12;9;
79537;PMS5003;68989;52.032;5.152;2023-04-04T13:25:53;10;8;
79537;PMS5003;68989;52.032;5.152;2023-04-04T13:28:21;8;8;
79537;PMS5003;68989;52.032;5.152;2023-04-04T13:30:47;10;10;
79537;PMS5003;68989;52.032;5.152;2023-04-04T13:33:14;6;6;
79537;PMS5003;68989;52.032;5.152;2023-04-04T13:35:42;9;9;
79537;PMS5003;68989;52.032;5.152;2023-04-04T13:38:09;6;6;
79537;PMS5003;68989;52.032;5.152;2023-04-04T13:40:37;9;8;
79537;PMS5003;68989;52.032;5.152;2023-04-04T13:43:04;9;9;
79537;PMS5003;68989;52.032;5.152;2023-04-04T13:45:31;11;9;
79537;PMS5003;68989;52.032;5.152;2023-04-04T13:47:58;6;6;
79537;PMS5003;68989;52.032;5.152;2023-04-04T13:50:25;8;8;
79537;PMS5003;68989;52.032;5.152;2023-04-04T13:52:52;9;9;
79537;PMS5003;68989;52.032;5.152;2023-04-04T13:55:19;8;8;
79537;PMS5003;68989;52.032;5.152;2023-04-04T13:57:47;9;8;
79537;PMS5003;68989;52.032;5.152;2023-04-04T14:00:14;7;7;
79537;PMS5003;68989;52.032;5.152;2023-04-04T14:02:42;6;6;
79537;PMS5003;68989;52.032;5.152;2023-04-04T14:05:09;9;6;
79537;PMS5003;68989;52.032;5.152;2023-04-04T14:07:36;6;6;
79537;PMS5003;68989;52.032;5.152;2023-04-04T14:10:04;7;5;
79537;PMS5003;68989;52.032;5.152;2023-04-04T14:12:32;10;7;
79537;PMS5003;68989;52.032;5.152;2023-04-04T14:14:59;8;8;
79537;PMS5003;68989;52.032;5.152;2023-04-04T14:17:28;6;6;
79537;PMS5003;68989;52.032;5.152;2023-04-04T14:19:55;6;6;
79537;PMS5003;68989;52.032;5.152;2023-04-04T14:22:22;6;6;
79537;PMS5003;68989;52.032;5.152;2023-04-04T14:24:50;6;6;
79537;PMS5003;68989;52.032;5.152;2023-04-04T14:27:17;6;5;
79537;PMS5003;68989;52.032;5.152;2023-04-04T14:29:44;9;9;
79537;PMS5003;68989;52.032;5.152;2023-04-04T14:32:11;8;8;
79537;PMS5003;68989;52.032;5.152;2023-04-04T14:34:38;8;8;
79537;PMS5003;68989;52.032;5.152;2023-04-04T14:37:05;8;7;
79537;PMS5003;68989;52.032;5.152;2023-04-04T14:39:31;11;9;
79537;PMS5003;68989;52.032;5.152;2023-04-04T14:41:58;10;8;
79537;PMS5003;68989;52.032;5.152;2023-04-04T14:44:25;9;8;
79537;PMS5003;68989;52.032;5.152;2023-04-04T14:46:52;8;7;
79537;PMS5003;68989;52.032;5.152;2023-04-04T14:49:19;11;9;
79537;PMS5003;68989;52.032;5.152;2023-04-04T14:51:46;7;7;
79537;PMS5003;68989;52.032;5.152;2023-04-04T14:54:13;6;6;
79537;PMS5003;68989;52.032;5.152;2023-04-04T14:56:40;11;9;
79537;PMS5003;68989;52.032;5.152;2023-04-04T14:59:07;10;10;
79537;PMS5003;68989;52.032;5.152;2023-04-04T15:01:34;14;11;
79537;PMS5003;68989;52.032;5.152;2023-04-04T15:04:01;8;8;
79537;PMS5003;68989;52.032;5.152;2023-04-04T15:06:28;6;5;
79537;PMS5003;68989;52.032;5.152;2023-04-04T15:08:55;8;8;
79537;PMS5003;68989;52.032;5.152;2023-04-04T15:11:21;10;9;
79537;PMS5003;68989;52.032;5.152;2023-04-04T15:13:49;10;10;
79537;PMS5003;68989;52.032;5.152;2023-04-04T15:16:15;8;7;
79537;PMS5003;68989;52.032;5.152;2023-04-04T15:18:43;9;9;
79537;PMS5003;68989;52.032;5.152;2023-04-04T15:21:10;11;9;
79537;PMS5003;68989;52.032;5.152;2023-04-04T15:23:37;10;10;
79537;PMS5003;68989;52.032;5.152;2023-04-04T15:26:04;11;9;
79537;PMS5003;68989;52.032;5.152;2023-04-04T15:28:31;10;10;
79537;PMS5003;68989;52.032;5.152;2023-04-04T15:30:59;12;9;
79537;PMS5003;68989;52.032;5.152;2023-04-04T15:33:26;9;9;
79537;PMS5003;68989;52.032;5.152;2023-04-04T15:35:53;9;9;
79537;PMS5003;68989;52.032;5.152;2023-04-04T15:38:20;9;9;
79537;PMS5003;68989;52.032;5.152;2023-04-04T15:40:47;10;10;
79537;PMS5003;68989;52.032;5.152;2023-04-04T15:43:13;8;8;
79537;PMS5003;68989;52.032;5.152;2023-04-04T15:45:41;10;9;
79537;PMS5003;68989;52.032;5.152;2023-04-04T15:48:08;10;9;
79537;PMS5003;68989;52.032;5.152;2023-04-04T15:50:36;11;11;
79537;PMS5003;68989;52.032;5.152;2023-04-04T15:53:02;11;10;
79537;PMS5003;68989;52.032;5.152;2023-04-04T15:55:29;11;9;
79537;PMS5003;68989;52.032;5.152;2023-04-04T15:57:56;13;11;
79537;PMS5003;68989;52.032;5.152;2023-04-04T16:00:24;12;11;
79537;PMS5003;68989;52.032;5.152;2023-04-04T16:02:51;10;9;
79537;PMS5003;68989;52.032;5.152;2023-04-04T16:05:22;14;10;
79537;PMS5003;68989;52.032;5.152;2023-04-04T16:07:48;10;9;
79537;PMS5003;68989;52.032;5.152;2023-04-04T16:10:15;10;10;
79537;PMS5003;68989;52.032;5.152;2023-04-04T16:12:43;16;11;
79537;PMS5003;68989;52.032;5.152;2023-04-04T16:15:10;12;11;
79537;PMS5003;68989;52.032;5.152;2023-04-04T16:17:37;10;9;
79537;PMS5003;68989;52.032;5.152;2023-04-04T16:20:04;8;7;
79537;PMS5003;68989;52.032;5.152;2023-04-04T16:22:32;14;12;
79537;PMS5003;68989;52.032;5.152;2023-04-04T16:24:59;9;9;
79537;PMS5003;68989;52.032;5.152;2023-04-04T16:27:26;9;9;
79537;PMS5003;68989;52.032;5.152;2023-04-04T16:29:53;11;10;
79537;PMS5003;68989;52.032;5.152;2023-04-04T16:32:19;9;9;
79537;PMS5003;68989;52.032;5.152;2023-04-04T16:34:47;9;9;